Time,TemperatureF,DewpointF,PressureIn,WindDirection,WindDirectionDegrees,WindSpeedMPH,WindSpeedGustMPH,Humidity,HourlyPrecipIn,Conditions,Clouds,dailyrainin,SoftwareType,DateUTC
2013-05-13 00:01:00,74.0,54.0,29.93,SW,229,0.0,4.0,50,0.00,,,0.00,,2013-05-13 07:01:00,
2013-05-13 00:21:00,72.0,52.0,29.93,SSE,159,0.0,1.0,50,0.00,,,0.00,,2013-05-13 07:21:00,
2013-05-13 00:31:00,72.0,52.0,29.93,SSE,159,0.0,1.0,49,0.00,,,0.00,,2013-05-13 07:31:00,
2013-05-13 00:41:00,73.0,47.0,29.93,SSE,157,0.0,1.0,40,0.00,,,0.00,,2013-05-13 07:41:00,
2013-05-13 01:01:00,73.0,47.0,29.93,SSE,157,0.0,1.0,40,0.00,,,0.00,,2013-05-13 08:01:00,
2013-05-13 01:21:00,73.0,48.0,29.94,SSE,157,0.0,0.0,41,0.00,,,0.00,,2013-05-13 08:21:00,
2013-05-13 01:31:00,71.0,49.0,29.94,SSE,157,0.0,0.0,45,0.00,,,0.00,,2013-05-13 08:31:00,
2013-05-13 01:52:00,71.0,50.0,29.94,SSE,157,0.0,0.0,47,0.00,,,0.00,,2013-05-13 08:52:00,
2013-05-13 02:01:00,70.0,53.0,29.94,SSE,157,0.0,0.0,54,0.00,,,0.00,,2013-05-13 09:01:00,
2013-05-13 02:11:00,70.0,53.0,29.94,SSE,157,0.0,0.0,54,0.00,,,0.00,,2013-05-13 09:11:00,
2013-05-13 02:21:00,70.0,48.0,29.94,NE,46,2.0,5.0,46,0.00,,,0.00,,2013-05-13 09:21:00,
2013-05-13 02:32:00,72.0,48.0,29.94,NE,46,0.0,0.0,42,0.00,,,0.00,,2013-05-13 09:32:00,
2013-05-13 02:52:00,73.0,49.0,29.94,NE,46,0.0,0.0,43,0.00,,,0.00,,2013-05-13 09:52:00,
2013-05-13 03:02:00,71.0,45.0,29.94,NE,46,0.0,1.0,40,0.00,,,0.00,,2013-05-13 10:02:00,
2013-05-13 03:22:00,75.0,45.0,29.93,NE,46,1.0,3.0,34,0.00,,,0.00,,2013-05-13 10:22:00,
2013-05-13 03:32:00,76.0,45.0,29.93,NNE,28,3.0,5.0,33,0.00,,,0.00,,2013-05-13 10:32:00,
2013-05-13 03:52:00,78.0,45.0,29.93,NE,51,3.0,5.0,31,0.00,,,0.00,,2013-05-13 10:52:00,
2013-05-13 04:02:00,79.0,45.0,29.93,NE,40,2.0,6.0,30,0.00,,,0.00,,2013-05-13 11:02:00,
2013-05-13 04:21:00,77.0,44.0,29.93,NE,55,4.0,6.0,31,0.00,,,0.00,,2013-05-13 11:21:00,
2013-05-13 04:32:00,77.0,44.0,29.93,NE,38,3.0,7.0,31,0.00,,,0.00,,2013-05-13 11:32:00,
2013-05-13 04:52:00,77.0,43.0,29.92,NE,34,3.0,9.0,30,0.00,,,0.00,,2013-05-13 11:52:00,
2013-05-13 05:01:00,78.0,43.0,29.93,NE,52,4.0,7.0,29,0.00,,,0.00,,2013-05-13 12:01:00,
2013-05-13 05:21:00,78.0,44.0,29.93,NE,50,3.0,5.0,30,0.00,,,0.00,,2013-05-13 12:21:00,
2013-05-13 05:32:00,78.0,47.0,29.93,NE,38,2.0,5.0,33,0.00,,,0.00,,2013-05-13 12:32:00,
2013-05-13 05:52:00,75.0,45.0,29.93,NE,39,0.0,1.0,34,0.00,,,0.00,,2013-05-13 12:52:00,
2013-05-13 06:01:00,76.0,44.0,29.93,North,360,1.0,5.0,32,0.00,,,0.00,,2013-05-13 13:01:00,
2013-05-13 06:21:00,77.0,44.0,29.94,North,5,1.0,5.0,31,0.00,,,0.00,,2013-05-13 13:21:00,
2013-05-13 06:31:00,77.0,43.0,29.94,East,80,2.0,6.0,30,0.00,,,0.00,,2013-05-13 13:31:00,
2013-05-13 06:41:00,77.0,43.0,29.95,NNW,348,2.0,6.0,30,0.00,,,0.00,,2013-05-13 13:41:00,
2013-05-13 07:01:00,76.0,44.0,29.95,NNW,333,0.0,1.0,32,0.00,,,0.00,,2013-05-13 14:01:00,
2013-05-13 07:31:00,79.0,44.0,29.96,North,355,0.0,3.0,29,0.00,,,0.00,,2013-05-13 14:31:00,
2013-05-13 08:01:00,81.0,47.0,29.96,North,355,3.0,5.0,30,0.00,,,0.00,,2013-05-13 15:01:00,
2013-05-13 08:31:00,81.0,48.0,29.97,North,355,1.0,2.0,32,0.00,,,0.00,,2013-05-13 15:31:00,
2013-05-13 09:03:00,84.0,49.0,29.97,North,351,0.0,2.0,30,0.00,,,0.00,,2013-05-13 16:03:00,
2013-05-13 09:21:00,86.0,50.0,29.97,North,350,0.0,1.0,29,0.00,,,0.00,,2013-05-13 16:21:00,
2013-05-13 09:33:00,88.0,51.0,29.96,North,351,0.0,2.0,28,0.00,,,0.00,,2013-05-13 16:33:00,
2013-05-13 09:42:00,90.0,50.0,29.97,North,350,0.0,1.0,26,0.00,,,0.00,,2013-05-13 16:42:00,
2013-05-13 10:02:00,91.0,53.0,29.97,NNW,346,0.0,1.0,28,0.00,,,0.00,,2013-05-13 17:02:00,
2013-05-13 10:32:00,93.0,51.0,29.96,WSW,237,0.0,4.0,24,0.00,,,0.00,,2013-05-13 17:32:00,
2013-05-13 11:03:00,94.0,51.0,29.97,SSW,200,0.0,10.0,23,0.00,,,0.00,,2013-05-13 18:03:00,
2013-05-13 11:32:00,96.0,51.0,29.97,WSW,244,0.0,8.0,22,0.00,,,0.00,,2013-05-13 18:32:00,
2013-05-13 11:42:00,96.0,51.0,29.97,East,101,2.0,4.0,22,0.00,,,0.00,,2013-05-13 18:42:00,
2013-05-13 12:01:00,98.0,53.0,29.97,WSW,245,0.0,4.0,22,0.00,,,0.00,,2013-05-13 19:01:00,
2013-05-13 12:32:00,98.0,51.0,29.96,WSW,240,2.0,7.0,21,0.00,,,0.00,,2013-05-13 19:32:00,
2013-05-13 12:43:00,97.0,52.0,29.96,SW,218,2.0,7.0,22,0.00,,,0.00,,2013-05-13 19:43:00,
2013-05-13 13:01:00,97.0,52.0,29.96,SW,215,3.0,6.0,22,0.00,,,0.00,,2013-05-13 20:01:00,
2013-05-13 13:33:00,98.0,51.0,29.95,SSW,206,2.0,10.0,21,0.00,,,0.00,,2013-05-13 20:33:00,
2013-05-13 14:02:00,99.0,51.0,29.94,WSW,237,3.0,14.0,20,0.00,,,0.00,,2013-05-13 21:02:00,
2013-05-13 14:33:00,98.0,53.0,29.94,SSW,210,4.0,11.0,22,0.00,,,0.00,,2013-05-13 21:33:00,
2013-05-13 15:02:00,99.0,51.0,29.93,WSW,251,6.0,13.0,20,0.00,,,0.00,,2013-05-13 22:02:00,
2013-05-13 15:22:00,99.0,52.0,29.93,South,186,5.0,10.0,21,0.00,,,0.00,,2013-05-13 22:22:00,
2013-05-13 15:32:00,98.0,51.0,29.93,SW,225,2.0,11.0,21,0.00,,,0.00,,2013-05-13 22:32:00,
2013-05-13 15:42:00,98.0,50.0,29.92,WSW,242,2.0,8.0,20,0.00,,,0.00,,2013-05-13 22:42:00,
2013-05-13 16:01:00,96.0,48.0,29.92,SSE,148,4.0,13.0,20,0.00,,,0.00,,2013-05-13 23:01:00,
2013-05-13 16:33:00,95.0,48.0,29.91,South,179,5.0,13.0,20,0.00,,,0.00,,2013-05-13 23:33:00,
2013-05-13 16:54:00,95.0,48.0,29.91,SSW,199,1.0,10.0,20,0.00,,,0.00,,2013-05-13 23:54:00,
2013-05-13 17:02:00,94.0,44.0,29.90,WSW,242,3.0,10.0,18,0.00,,,0.00,,2013-05-14 00:02:00,
2013-05-13 17:12:00,94.0,44.0,29.90,WSW,242,3.0,10.0,18,0.00,,,0.00,,2013-05-14 00:12:00,
2013-05-13 17:22:00,94.0,45.0,29.90,SE,139,2.0,9.0,19,0.00,,,0.00,,2013-05-14 00:22:00,
2013-05-13 17:31:00,93.0,43.0,29.90,South,185,4.0,13.0,18,0.00,,,0.00,,2013-05-14 00:31:00,
2013-05-13 17:41:00,93.0,43.0,29.90,South,185,4.0,13.0,18,0.00,,,0.00,,2013-05-14 00:41:00,
2013-05-13 18:01:00,92.0,39.0,29.89,South,178,3.0,11.0,16,0.00,,,0.00,,2013-05-14 01:01:00,
2013-05-13 18:31:00,90.0,39.0,29.89,SSW,205,2.0,16.0,17,0.00,,,0.00,,2013-05-14 01:31:00,
2013-05-13 18:43:00,90.0,39.0,29.89,SSW,205,2.0,16.0,17,0.00,,,0.00,,2013-05-14 01:43:00,
2013-05-13 18:53:00,89.0,38.0,29.89,SW,214,2.0,19.0,17,0.00,,,0.00,,2013-05-14 01:53:00,
2013-05-13 19:01:00,88.0,38.0,29.89,SSW,204,2.0,13.0,17,0.00,,,0.00,,2013-05-14 02:01:00,
2013-05-13 19:11:00,87.0,38.0,29.89,SSW,210,1.0,12.0,18,0.00,,,0.00,,2013-05-14 02:11:00,
2013-05-13 19:21:00,87.0,38.0,29.89,SSW,210,1.0,12.0,18,0.00,,,0.00,,2013-05-14 02:21:00,
2013-05-13 19:31:00,86.0,40.0,29.89,SSE,165,3.0,6.0,20,0.00,,,0.00,,2013-05-14 02:31:00,
2013-05-13 19:42:00,86.0,40.0,29.89,SSE,165,3.0,6.0,20,0.00,,,0.00,,2013-05-14 02:42:00,
2013-05-13 19:52:00,84.0,41.0,29.89,South,173,2.0,4.0,22,0.00,,,0.00,,2013-05-14 02:52:00,
2013-05-13 20:01:00,83.0,44.0,29.89,South,184,2.0,7.0,25,0.00,,,0.00,,2013-05-14 03:01:00,
2013-05-13 20:11:00,83.0,44.0,29.89,South,184,2.0,7.0,25,0.00,,,0.00,,2013-05-14 03:11:00,
2013-05-13 20:21:00,82.0,47.0,29.89,SSW,198,0.0,2.0,30,0.00,,,0.00,,2013-05-14 03:21:00,
2013-05-13 20:32:00,81.0,49.0,29.90,SSW,199,0.0,4.0,33,0.00,,,0.00,,2013-05-14 03:32:00,
2013-05-13 20:53:00,79.0,50.0,29.90,SSW,198,0.0,3.0,37,0.00,,,0.00,,2013-05-14 03:53:00,
2013-05-13 21:02:00,78.0,51.0,29.90,SSW,198,0.0,0.0,39,0.00,,,0.00,,2013-05-14 04:02:00,
2013-05-13 21:32:00,77.0,51.0,29.90,SSW,198,0.0,0.0,40,0.00,,,0.00,,2013-05-14 04:32:00,
2013-05-13 21:53:00,76.0,51.0,29.91,SSW,198,0.0,0.0,41,0.00,,,0.00,,2013-05-14 04:53:00,
2013-05-13 22:01:00,75.0,47.0,29.91,SSW,198,0.0,0.0,37,0.00,,,0.00,,2013-05-14 05:01:00,
2013-05-13 22:21:00,75.0,45.0,29.91,SSW,198,0.0,1.0,35,0.00,,,0.00,,2013-05-14 05:21:00,
2013-05-13 22:32:00,75.0,47.0,29.91,SSW,198,0.0,0.0,37,0.00,,,0.00,,2013-05-14 05:32:00,
2013-05-13 22:42:00,72.0,47.0,29.91,SSW,198,0.0,0.0,41,0.00,,,0.00,,2013-05-14 05:42:00,
2013-05-13 23:01:00,71.0,49.0,29.91,SSW,198,0.0,0.0,45,0.00,,,0.00,,2013-05-14 06:01:00,
2013-05-13 23:31:00,68.0,46.0,29.91,SSW,198,0.0,0.0,45,0.00,,,0.00,,2013-05-14 06:31:00,
2013-05-13 23:42:00,68.0,46.0,29.91,SSW,198,0.0,0.0,45,0.00,,,0.00,,2013-05-14 06:42:00,
2013-05-13 23:52:00,67.0,48.0,29.90,SSW,198,0.0,0.0,50,0.00,,,0.00,,2013-05-14 06:52:00,